Details From KSDM - Brown Field Muni
To KNSI - San Nicolas Island NOLF
Flight Number -
Tags generated
Created
Modified
Stats Distance 131 nm / 243 km
Max Altitude 13,600 ft / 4,145 m
Waypoints 3
Social Downloads 0
Likes 0
Share

Download

Looking for another format? Having issues loading an existing format? Contact us
Advertisement - Login to hide

Notes

Basic altitude profile: - Ascent Rate: 2500ft/min - Ascent Speed: 250kts - Cruise Altitude: 35000ft - Cruise Speed: 420kts - Descent Rate: 1500ft/min - Descent Speed: 250kts Options: - Use NATs: yes - Use PACOTS: yes - Use low airways: no - Use high airways: yes

Route

KSDM ORDER KNSI

ID Type Via Altitude (ft/m) Position (lat/lon) Dist (leg/tot) Name
O KSDM APT - 0 / 0 32.57190 / -116.98000 - / 0 nm Brown Field Muni
ORDER FIX - 13,600 / 4,145 32.72290 / -117.71600 38 / 38 nm
O KNSI APT - 0 / 0 33.23980 / -119.45800 93 / 131 nm San Nicolas Island NOLF

Altitude Profile

Advertisement - Login to hide

KSDM

Details ICAO KSDM (SDM)
Name Brown Field Muni
Region United States
Timezone America/Los_Angeles (UTC-7.0)
Stats Elevation 526 ft / 160 m (AMSL)
Location 32.571900° -116.980000°
Runways 2
Magnetic Variation 11.067° E

METAR

KSDM 261628Z 00000KT 6SM HZ BKN010 18/13 A2995

Decode

TAF

Not found

Departure Runways

ID Width Length Bearing (true/mag) Surface Threshold Overrun Markings Lighting
08L 151 ft / 46 m 7,963 ft / 2,427 m 95.61° / 84.55° ASPHALT 0 ft / 0 m 33 ft / 10 m APP EDGE THRESHOLD REIL-OMNI
08R 75 ft / 23 m 3,186 ft / 971 m 95.55° / 84.49° ASPHALT 0 ft / 0 m 0 ft / 0 m VISUAL EDGE THRESHOLD
26L 75 ft / 23 m 3,186 ft / 971 m 275.56° / 264.49° ASPHALT 0 ft / 0 m 1,703 ft / 519 m VISUAL EDGE THRESHOLD
26R 151 ft / 46 m 7,963 ft / 2,427 m 275.63° / 264.56° ASPHALT 0 ft / 0 m 0 ft / 0 m APP EDGE THRESHOLD REIL-OMNI

KNSI

Details ICAO KNSI
Name San Nicolas Island NOLF
Region United States
Timezone America/Los_Angeles (UTC-7.0)
Stats Elevation 506 ft / 154 m (AMSL)
Location 33.239800° -119.458000°
Runways 1
Magnetic Variation 11.682° E

METAR

KNSI 261553Z 12008KT 10SM OVC008 14/11 A2996 RMK AO2 SLP141 T01390106

Decode

TAF

Not found

Destination Runways

ID Width Length Bearing (true/mag) Surface Threshold Overrun Markings Lighting
12 200 ft / 61 m 10,006 ft / 3,050 m 132.72° / 121.04° ASPHALT 991 ft / 302 m 0 ft / 0 m VISUAL EDGE THRESHOLD
30 200 ft / 61 m 10,006 ft / 3,050 m 312.74° / 301.05° ASPHALT 0 ft / 0 m 148 ft / 45 m PREC-APP EDGE THRESHOLD

Approach Navaids

Runway Type Ident Frequency Range Bearing (true/mag) Slope Elevation
30 LOC-ILS INSI 109.70 MHz 18 nm / 33 km 312.73° / 301.05 ° - 506 ft / 154 m (AMSL)
30 GS INSI 109.70 MHz 10 nm / 19 km 312.73° / 301.05 ° 3.00° 506 ft / 154 m (AMSL)

Popular Alternatives